Time;durP1;ratioP1;P1;durP2;ratioP2;P2;SDS_P1;SDS_P2;PMS_P1;PMS_P2;Temp;Humidity;BMP_temperature;BMP_pressure;BME280_temperature;BME280_humidity;BME280_pressure;Samples;Min_cycle;Max_cycle;Signal;HPM_P1;HPM_P2
2022/12/07 00:01:21;;;;;;;7.68;5.38;;;;;;;;;;4898696;29;20036;-85
2022/12/07 00:03:50;;;;;;;9.60;5.88;;;;;;;;;;4898301;29;20032;-84
2022/12/07 00:06:17;;;;;;;9.52;5.80;;;;;;;;;;4901226;29;20406;-84
2022/12/07 00:08:42;;;;;;;9.77;6.13;;;;;;;;;;4899526;29;20131;-84
2022/12/07 00:11:13;;;;;;;8.23;5.50;;;;;;;;;;4899163;29;20075;-84
2022/12/07 00:13:39;;;;;;;8.80;5.72;;;;;;;;;;4899531;29;20088;-83
2022/12/07 00:16:06;;;;;;;8.95;5.40;;;;;;;;;;4898764;29;20025;-84
2022/12/07 00:18:31;;;;;;;7.90;5.07;;;;;;;;;;4899315;29;20044;-83
2022/12/07 00:21:06;;;;;;;7.63;4.60;;;;;;;;;;4882769;29;20109;-84
2022/12/07 00:23:33;;;;;;;8.27;4.10;;;;;;;;;;4898467;29;20036;-84
2022/12/07 00:26:09;;;;;;;7.07;4.30;;;;;;;;;;4899415;29;20584;-83
2022/12/07 00:28:35;;;;;;;7.90;4.35;;;;;;;;;;4899281;29;20063;-84
2022/12/07 00:31:04;;;;;;;7.38;4.40;;;;;;;;;;4898762;29;20036;-83
2022/12/07 00:33:29;;;;;;;8.93;4.35;;;;;;;;;;4897189;29;20037;-83
2022/12/07 00:35:56;;;;;;;7.57;5.15;;;;;;;;;;4899221;29;20104;-84
2022/12/07 00:38:22;;;;;;;8.50;4.65;;;;;;;;;;4899790;29;20083;-84
2022/12/07 00:41:18;;;;;;;7.10;4.40;;;;;;;;;;4898595;29;20123;-84
2022/12/07 00:43:45;;;;;;;8.10;4.63;;;;;;;;;;4897381;29;20044;-83
2022/12/07 00:46:12;;;;;;;7.97;4.72;;;;;;;;;;4897909;29;20123;-84
2022/12/07 00:48:37;;;;;;;7.85;5.53;;;;;;;;;;4897742;29;20087;-84
2022/12/07 00:51:04;;;;;;;8.35;5.18;;;;;;;;;;4897814;29;20212;-83
2022/12/07 00:53:30;;;;;;;8.38;4.85;;;;;;;;;;4899040;29;20085;-84
2022/12/07 00:55:56;;;;;;;8.73;5.85;;;;;;;;;;4898731;29;20421;-84
2022/12/07 00:58:23;;;;;;;8.10;5.53;;;;;;;;;;4898926;29;20040;-83
2022/12/07 01:00:49;;;;;;;10.10;6.28;;;;;;;;;;4898706;29;20057;-83
2022/12/07 01:03:15;;;;;;;9.73;6.97;;;;;;;;;;4899016;29;20036;-84
2022/12/07 01:05:50;;;;;;;13.55;7.70;;;;;;;;;;4896887;29;20052;-83
2022/12/07 01:08:16;;;;;;;12.43;7.55;;;;;;;;;;4899216;29;20036;-84
2022/12/07 01:10:41;;;;;;;15.48;7.82;;;;;;;;;;4898652;29;20059;-85
2022/12/07 01:13:07;;;;;;;14.45;8.45;;;;;;;;;;4898469;29;20410;-84
2022/12/07 01:15:32;;;;;;;13.80;8.32;;;;;;;;;;4898359;29;20028;-84
2022/12/07 01:17:58;;;;;;;15.35;9.65;;;;;;;;;;4896998;29;20578;-83
2022/12/07 01:20:23;;;;;;;14.52;8.90;;;;;;;;;;4897463;29;20414;-84
2022/12/07 01:22:48;;;;;;;17.08;9.27;;;;;;;;;;4898923;29;20032;-84
2022/12/07 01:25:14;;;;;;;14.50;8.70;;;;;;;;;;4898723;29;20047;-84
2022/12/07 01:27:39;;;;;;;15.60;9.05;;;;;;;;;;4899134;29;20095;-85
2022/12/07 01:30:06;;;;;;;15.77;9.52;;;;;;;;;;4898593;29;20036;-84
2022/12/07 01:32:33;;;;;;;16.17;9.27;;;;;;;;;;4898927;29;20112;-85
2022/12/07 01:34:58;;;;;;;16.27;9.48;;;;;;;;;;4897810;29;20036;-84
2022/12/07 01:37:24;;;;;;;15.23;9.80;;;;;;;;;;4898309;29;20048;-84
2022/12/07 01:39:50;;;;;;;16.70;9.60;;;;;;;;;;4897483;29;20021;-84
2022/12/07 01:42:18;;;;;;;14.95;9.48;;;;;;;;;;4897995;29;20055;-84
2022/12/07 01:45:18;;;;;;;15.27;8.80;;;;;;;;;;4896889;29;20433;-84
2022/12/07 01:47:52;;;;;;;14.32;8.07;;;;;;;;;;4901670;29;20486;-84
2022/12/07 01:50:18;;;;;;;16.65;8.93;;;;;;;;;;4900624;29;20486;-83
2022/12/07 01:52:46;;;;;;;16.70;9.63;;;;;;;;;;4901848;29;20609;-84
2022/12/07 01:55:13;;;;;;;13.77;8.93;;;;;;;;;;4901363;29;20068;-84
2022/12/07 01:57:41;;;;;;;18.17;9.60;;;;;;;;;;4900357;29;20071;-85
2022/12/07 02:00:09;;;;;;;16.75;10.27;;;;;;;;;;4899875;29;20041;-84
2022/12/07 02:02:55;;;;;;;18.08;9.85;;;;;;;;;;4900905;29;20139;-84
2022/12/07 02:05:22;;;;;;;17.50;9.75;;;;;;;;;;4901559;29;20037;-84
2022/12/07 02:07:49;;;;;;;18.80;10.00;;;;;;;;;;4900216;29;20035;-83
2022/12/07 02:10:17;;;;;;;19.40;10.32;;;;;;;;;;4899914;29;20044;-84
2022/12/07 02:12:46;;;;;;;18.17;10.60;;;;;;;;;;4901336;29;20050;-83
2022/12/07 02:15:11;;;;;;;19.77;10.85;;;;;;;;;;4900810;29;20040;-83
2022/12/07 02:18:18;;;;;;;17.10;10.50;;;;;;;;;;4901663;29;20037;-83
2022/12/07 02:20:50;;;;;;;18.13;10.90;;;;;;;;;;4898780;29;20059;-83
2022/12/07 02:23:19;;;;;;;20.02;10.63;;;;;;;;;;4899641;29;20421;-83
2022/12/07 02:25:58;;;;;;;21.08;11.52;;;;;;;;;;4884425;29;20039;-83
2022/12/07 02:28:23;;;;;;;18.80;11.07;;;;;;;;;;4901028;29;20101;-83
2022/12/07 02:30:52;;;;;;;18.83;11.00;;;;;;;;;;4901351;29;20406;-82
2022/12/07 02:33:28;;;;;;;17.50;10.63;;;;;;;;;;4901120;29;20064;-83
2022/12/07 02:36:10;;;;;;;16.80;10.02;;;;;;;;;;4900589;29;20175;-83
2022/12/07 02:38:55;;;;;;;18.20;10.85;;;;;;;;;;4900773;29;20037;-84
2022/12/07 02:41:24;;;;;;;18.45;10.40;;;;;;;;;;4900466;29;20096;-84
2022/12/07 02:43:57;;;;;;;17.33;10.05;;;;;;;;;;4899284;29;20041;-84
2022/12/07 02:46:28;;;;;;;17.08;10.02;;;;;;;;;;4900612;29;20142;-83
2022/12/07 02:48:54;;;;;;;18.77;9.95;;;;;;;;;;4899238;29;20107;-84
2022/12/07 02:51:21;;;;;;;15.90;10.25;;;;;;;;;;4884105;29;20032;-84
2022/12/07 02:53:47;;;;;;;18.63;10.23;;;;;;;;;;4900515;29;20081;-84
2022/12/07 02:56:36;;;;;;;16.17;9.93;;;;;;;;;;4900421;29;20096;-84
2022/12/07 02:59:13;;;;;;;15.70;9.65;;;;;;;;;;4899447;29;20482;-85
2022/12/07 03:02:07;;;;;;;17.02;9.48;;;;;;;;;;4899270;29;20397;-84
2022/12/07 03:05:15;;;;;;;15.40;9.73;;;;;;;;;;4899798;29;20505;-82
2022/12/07 03:07:52;;;;;;;16.00;8.93;;;;;;;;;;4900036;29;20348;-82
2022/12/07 03:10:42;;;;;;;15.45;9.32;;;;;;;;;;4900271;29;20043;-83
2022/12/07 03:13:39;;;;;;;14.50;8.70;;;;;;;;;;4900896;29;20482;-82
2022/12/07 03:16:16;;;;;;;16.75;9.68;;;;;;;;;;4898680;29;20064;-83
2022/12/07 03:18:50;;;;;;;16.13;9.40;;;;;;;;;;4899137;29;20133;-83
2022/12/07 03:21:20;;;;;;;18.63;9.68;;;;;;;;;;4900332;29;20051;-83
2022/12/07 03:23:51;;;;;;;16.13;9.20;;;;;;;;;;4900142;29;20033;-83
2022/12/07 03:26:18;;;;;;;17.50;9.98;;;;;;;;;;4900023;29;20486;-84
2022/12/07 03:28:50;;;;;;;18.73;9.90;;;;;;;;;;4899421;29;20032;-82
2022/12/07 03:31:24;;;;;;;15.65;10.18;;;;;;;;;;4898720;29;20044;-82
2022/12/07 03:34:16;;;;;;;17.30;9.32;;;;;;;;;;4899941;29;20058;-81
2022/12/07 03:36:57;;;;;;;14.98;9.70;;;;;;;;;;4900251;29;20043;-83
2022/12/07 03:39:46;;;;;;;16.88;10.13;;;;;;;;;;4900101;29;20491;-83
2022/12/07 03:42:12;;;;;;;17.23;10.27;;;;;;;;;;4900091;29;20033;-83
2022/12/07 03:44:38;;;;;;;17.35;10.15;;;;;;;;;;4900003;29;20025;-83
2022/12/07 03:47:13;;;;;;;18.08;9.50;;;;;;;;;;4899475;29;20051;-82
2022/12/07 03:49:50;;;;;;;17.98;10.15;;;;;;;;;;4899428;29;20541;-82
2022/12/07 03:52:24;;;;;;;16.90;9.48;;;;;;;;;;4899400;29;20509;-82
2022/12/07 03:55:02;;;;;;;15.10;9.65;;;;;;;;;;4899414;29;20458;-82
2022/12/07 03:57:30;;;;;;;17.30;10.25;;;;;;;;;;4897979;29;20045;-82
2022/12/07 03:59:57;;;;;;;18.35;10.40;;;;;;;;;;4899751;29;20048;-82
2022/12/07 04:02:25;;;;;;;21.48;10.13;;;;;;;;;;4898276;29;20047;-83
2022/12/07 04:04:51;;;;;;;16.95;9.80;;;;;;;;;;4898161;29;20047;-82
2022/12/07 04:07:16;;;;;;;16.52;9.65;;;;;;;;;;4899561;29;20037;-83
2022/12/07 04:09:42;;;;;;;18.80;9.88;;;;;;;;;;4899062;29;20037;-83
2022/12/07 04:12:07;;;;;;;17.05;9.85;;;;;;;;;;4898495;29;20131;-83
2022/12/07 04:14:33;;;;;;;17.40;9.88;;;;;;;;;;4899006;29;20028;-81
2022/12/07 04:16:59;;;;;;;17.23;9.88;;;;;;;;;;4882277;29;20047;-83
2022/12/07 04:19:30;;;;;;;17.95;10.30;;;;;;;;;;4899477;29;20040;-83
2022/12/07 04:21:57;;;;;;;18.17;10.27;;;;;;;;;;4897945;29;20391;-85
2022/12/07 04:24:22;;;;;;;18.20;10.55;;;;;;;;;;4897732;29;20033;-84
2022/12/07 04:26:48;;;;;;;19.17;11.05;;;;;;;;;;4897962;29;20516;-85
2022/12/07 04:29:14;;;;;;;18.00;10.13;;;;;;;;;;4898091;29;20658;-84
2022/12/07 04:31:39;;;;;;;18.35;10.75;;;;;;;;;;4899577;29;20176;-85
2022/12/07 04:34:06;;;;;;;18.40;10.50;;;;;;;;;;4898767;29;20119;-84
2022/12/07 04:36:32;;;;;;;21.15;11.13;;;;;;;;;;4899135;29;20036;-84
2022/12/07 04:38:58;;;;;;;18.83;10.73;;;;;;;;;;4899043;29;20561;-84
2022/12/07 04:41:26;;;;;;;16.45;9.80;;;;;;;;;;4898052;29;20048;-84
2022/12/07 04:44:03;;;;;;;16.15;9.63;;;;;;;;;;4898945;29;20032;-84
2022/12/07 04:46:31;;;;;;;16.70;9.52;;;;;;;;;;4898181;29;20041;-84
2022/12/07 04:48:57;;;;;;;16.70;10.00;;;;;;;;;;4899034;29;20047;-84
2022/12/07 04:51:26;;;;;;;16.20;9.52;;;;;;;;;;4899108;29;20032;-84
2022/12/07 04:53:51;;;;;;;14.70;8.60;;;;;;;;;;4897564;29;20486;-84
2022/12/07 04:56:17;;;;;;;18.50;9.70;;;;;;;;;;4898467;29;20040;-83
2022/12/07 04:58:44;;;;;;;15.68;9.48;;;;;;;;;;4898961;29;20044;-83
2022/12/07 05:01:10;;;;;;;17.15;9.77;;;;;;;;;;4898763;29;20033;-84
2022/12/07 05:03:37;;;;;;;15.63;8.85;;;;;;;;;;4897690;29;20043;-84
2022/12/07 05:06:03;;;;;;;15.50;9.13;;;;;;;;;;4897280;29;20056;-85
2022/12/07 05:08:28;;;;;;;14.25;9.18;;;;;;;;;;4898379;29;20033;-84
2022/12/07 05:10:53;;;;;;;15.27;9.30;;;;;;;;;;4898949;29;20059;-84
2022/12/07 05:13:19;;;;;;;15.93;9.20;;;;;;;;;;4898616;29;20041;-84
2022/12/07 05:15:47;;;;;;;15.85;9.35;;;;;;;;;;4898331;29;20397;-84
2022/12/07 05:18:12;;;;;;;17.08;9.88;;;;;;;;;;4897212;29;20040;-84
2022/12/07 05:20:39;;;;;;;15.20;8.98;;;;;;;;;;4898230;29;20041;-83
2022/12/07 05:23:05;;;;;;;17.60;9.05;;;;;;;;;;4902234;29;20040;-82
2022/12/07 05:25:30;;;;;;;15.68;9.60;;;;;;;;;;4902520;29;20566;-84
2022/12/07 05:27:56;;;;;;;16.70;10.20;;;;;;;;;;4901906;29;20525;-84
2022/12/07 05:30:23;;;;;;;15.50;9.35;;;;;;;;;;4902028;29;20071;-83
2022/12/07 05:32:48;;;;;;;15.13;8.90;;;;;;;;;;4901856;29;20041;-83
2022/12/07 05:35:14;;;;;;;15.63;10.10;;;;;;;;;;4900896;29;20041;-83
2022/12/07 05:37:39;;;;;;;17.27;9.63;;;;;;;;;;4901942;29;20044;-83
2022/12/07 05:40:05;;;;;;;15.23;9.32;;;;;;;;;;4901936;29;20120;-84
2022/12/07 05:42:31;;;;;;;14.68;8.60;;;;;;;;;;4901929;29;20025;-83
2022/12/07 05:44:56;;;;;;;14.02;8.95;;;;;;;;;;4900428;29;20183;-84
2022/12/07 05:47:21;;;;;;;14.98;9.30;;;;;;;;;;4901111;29;20033;-84
2022/12/07 05:49:47;;;;;;;15.50;9.23;;;;;;;;;;4902044;29;20096;-84
2022/12/07 05:52:12;;;;;;;13.90;8.05;;;;;;;;;;4900864;29;20036;-84
2022/12/07 05:54:38;;;;;;;15.85;9.48;;;;;;;;;;4901669;29;20029;-84
2022/12/07 05:57:03;;;;;;;19.83;9.40;;;;;;;;;;4901854;29;20115;-84
2022/12/07 05:59:29;;;;;;;15.30;9.38;;;;;;;;;;4901612;29;20042;-85
2022/12/07 06:01:57;;;;;;;14.95;9.45;;;;;;;;;;4900397;29;20522;-84
2022/12/07 06:04:25;;;;;;;18.30;9.80;;;;;;;;;;4900182;29;20029;-84
2022/12/07 06:06:54;;;;;;;15.88;9.60;;;;;;;;;;4900072;29;20101;-83
2022/12/07 06:09:21;;;;;;;15.75;9.20;;;;;;;;;;4901494;29;20513;-82
2022/12/07 06:14:31;;;;;;;16.13;9.13;;;;;;;;;;4899580;29;20040;-83
2022/12/07 06:16:57;;;;;;;18.15;10.32;;;;;;;;;;4901938;29;20047;-83
2022/12/07 06:19:22;;;;;;;14.23;9.13;;;;;;;;;;4900152;29;20060;-84
2022/12/07 06:21:48;;;;;;;17.70;9.38;;;;;;;;;;4901282;29;20040;-84
2022/12/07 06:24:15;;;;;;;16.05;9.95;;;;;;;;;;4900986;29;20041;-84
2022/12/07 06:26:41;;;;;;;15.40;9.18;;;;;;;;;;4899918;29;20487;-84
2022/12/07 06:29:06;;;;;;;15.38;9.55;;;;;;;;;;4883967;29;20048;-84
2022/12/07 06:31:32;;;;;;;16.05;9.23;;;;;;;;;;4900824;29;20032;-85
2022/12/07 06:34:02;;;;;;;15.73;9.23;;;;;;;;;;4901075;29;20399;-83
2022/12/07 06:36:28;;;;;;;16.25;10.20;;;;;;;;;;4900116;29;20108;-83
2022/12/07 06:38:54;;;;;;;13.88;8.27;;;;;;;;;;4901203;29;20029;-83
2022/12/07 06:41:20;;;;;;;15.32;9.43;;;;;;;;;;4901277;29;20040;-84
2022/12/07 06:43:45;;;;;;;14.15;8.57;;;;;;;;;;4899746;29;20127;-84
2022/12/07 06:46:11;;;;;;;14.55;8.85;;;;;;;;;;4900658;29;20064;-84
2022/12/07 06:48:36;;;;;;;14.70;9.05;;;;;;;;;;4900644;29;20065;-83
2022/12/07 06:51:01;;;;;;;14.25;8.40;;;;;;;;;;4899582;29;20120;-84
2022/12/07 06:53:27;;;;;;;15.20;9.13;;;;;;;;;;4900802;29;20039;-83
2022/12/07 06:55:53;;;;;;;17.70;9.27;;;;;;;;;;4900739;29;20044;-84
2022/12/07 06:58:18;;;;;;;15.70;9.43;;;;;;;;;;4898822;29;20096;-82
2022/12/07 07:00:45;;;;;;;15.85;8.77;;;;;;;;;;4899714;29;20495;-82
2022/12/07 07:03:10;;;;;;;14.00;8.27;;;;;;;;;;4899701;29;20061;-83
2022/12/07 07:05:36;;;;;;;18.15;9.63;;;;;;;;;;4898027;29;20037;-83
2022/12/07 07:08:02;;;;;;;14.75;9.00;;;;;;;;;;4900790;29;20371;-84
2022/12/07 07:10:28;;;;;;;14.25;9.10;;;;;;;;;;4898442;29;20470;-85
2022/12/07 07:12:53;;;;;;;17.52;9.50;;;;;;;;;;4899001;29;20040;-85
2022/12/07 07:15:19;;;;;;;14.02;8.95;;;;;;;;;;4900498;29;20045;-85
2022/12/07 07:17:44;;;;;;;15.52;9.65;;;;;;;;;;4900568;29;20045;-85
2022/12/07 07:20:10;;;;;;;17.25;9.50;;;;;;;;;;4899989;29;20048;-85
2022/12/07 07:22:36;;;;;;;14.98;9.52;;;;;;;;;;4899897;29;20095;-85
2022/12/07 07:25:01;;;;;;;17.08;9.52;;;;;;;;;;4901082;29;20124;-84
2022/12/07 07:27:27;;;;;;;15.77;9.70;;;;;;;;;;4917971;29;20044;-86
2022/12/07 07:29:52;;;;;;;15.98;9.43;;;;;;;;;;4918786;29;20062;-85
2022/12/07 07:32:17;;;;;;;15.73;9.43;;;;;;;;;;4917922;29;20588;-85
2022/12/07 07:34:43;;;;;;;16.73;10.07;;;;;;;;;;4918004;29;20521;-85
2022/12/07 07:37:10;;;;;;;14.90;8.93;;;;;;;;;;4918067;29;20043;-85
2022/12/07 07:39:36;;;;;;;14.25;9.57;;;;;;;;;;4917958;29;20405;-85
2022/12/07 07:42:01;;;;;;;19.20;9.98;;;;;;;;;;4918239;29;20036;-85
2022/12/07 07:44:27;;;;;;;17.08;10.00;;;;;;;;;;4916542;29;20039;-85
2022/12/07 07:46:52;;;;;;;18.67;10.25;;;;;;;;;;4917904;29;20413;-85
2022/12/07 07:49:18;;;;;;;17.95;10.30;;;;;;;;;;4917286;29;20597;-84
2022/12/07 07:51:44;;;;;;;17.15;9.90;;;;;;;;;;4900069;29;20059;-87
2022/12/07 07:54:09;;;;;;;18.60;10.10;;;;;;;;;;4917134;29;20135;-85
2022/12/07 07:56:35;;;;;;;17.05;9.38;;;;;;;;;;4918696;29;20063;-86
2022/12/07 07:59:00;;;;;;;21.67;9.93;;;;;;;;;;4901890;29;20098;-85
2022/12/07 08:01:26;;;;;;;18.77;10.13;;;;;;;;;;4919612;29;20038;-86
2022/12/07 08:03:51;;;;;;;17.48;10.65;;;;;;;;;;4919313;29;20040;-85
2022/12/07 08:06:17;;;;;;;18.25;10.35;;;;;;;;;;4918751;29;20044;-85
2022/12/07 08:08:42;;;;;;;16.08;9.38;;;;;;;;;;4919113;29;20123;-85
2022/12/07 08:11:09;;;;;;;17.50;9.98;;;;;;;;;;4918716;29;20056;-86
2022/12/07 08:13:34;;;;;;;12.55;7.95;;;;;;;;;;4918261;29;20035;-86
2022/12/07 08:16:06;;;;;;;11.68;6.88;;;;;;;;;;4903323;29;20057;-85
2022/12/07 08:18:35;;;;;;;10.32;6.53;;;;;;;;;;4910569;29;20036;-87
2022/12/07 08:21:01;;;;;;;9.07;5.78;;;;;;;;;;4901820;29;20037;-86
2022/12/07 08:23:27;;;;;;;10.45;6.18;;;;;;;;;;4900987;29;20611;-86
2022/12/07 08:25:53;;;;;;;9.98;6.22;;;;;;;;;;4901251;29;20066;-86
2022/12/07 08:28:18;;;;;;;9.02;5.95;;;;;;;;;;4901367;29;20040;-87
2022/12/07 08:30:44;;;;;;;8.10;5.65;;;;;;;;;;4901265;29;20088;-86
2022/12/07 08:33:10;;;;;;;9.88;5.93;;;;;;;;;;4900954;29;20044;-87
2022/12/07 08:35:36;;;;;;;12.32;6.97;;;;;;;;;;4901128;29;20040;-87
2022/12/07 08:38:03;;;;;;;9.65;6.38;;;;;;;;;;4901378;29;20406;-87
2022/12/07 08:40:29;;;;;;;8.77;5.47;;;;;;;;;;4901578;29;20413;-87
2022/12/07 08:42:55;;;;;;;9.10;5.47;;;;;;;;;;4901229;29;20132;-87
2022/12/07 08:45:21;;;;;;;8.75;6.00;;;;;;;;;;4899416;29;20060;-86
2022/12/07 08:47:55;;;;;;;9.65;5.30;;;;;;;;;;4900599;29;20458;-87
2022/12/07 08:50:21;;;;;;;9.45;5.60;;;;;;;;;;4901348;29;20049;-86
2022/12/07 08:52:54;;;;;;;8.50;5.55;;;;;;;;;;4901137;29;20048;-86
2022/12/07 08:55:19;;;;;;;10.70;6.17;;;;;;;;;;4901291;29;20044;-85
2022/12/07 08:57:45;;;;;;;11.68;5.20;;;;;;;;;;4888184;29;20043;-86
2022/12/07 09:00:11;;;;;;;9.38;5.40;;;;;;;;;;4903804;29;20573;-87
2022/12/07 09:02:37;;;;;;;9.13;5.45;;;;;;;;;;4905020;29;20047;-87
2022/12/07 09:05:03;;;;;;;9.35;6.03;;;;;;;;;;4903451;29;20036;-87
2022/12/07 09:07:31;;;;;;;10.38;6.40;;;;;;;;;;4904591;29;20482;-87
2022/12/07 09:09:56;;;;;;;12.38;7.70;;;;;;;;;;4905203;29;20086;-86
2022/12/07 09:12:22;;;;;;;11.65;7.32;;;;;;;;;;4905745;29;20184;-86
2022/12/07 09:14:47;;;;;;;11.23;7.25;;;;;;;;;;4904844;29;20040;-86
2022/12/07 09:17:13;;;;;;;8.60;5.03;;;;;;;;;;4905386;29;20115;-86
2022/12/07 09:19:41;;;;;;;9.52;4.97;;;;;;;;;;4903762;29;20037;-87
2022/12/07 09:22:07;;;;;;;6.07;4.35;;;;;;;;;;4904800;29;20036;-86
2022/12/07 09:24:32;;;;;;;6.25;4.22;;;;;;;;;;4903890;29;20028;-86
2022/12/07 09:26:58;;;;;;;11.68;5.35;;;;;;;;;;4904624;29;20517;-85
2022/12/07 09:29:24;;;;;;;7.65;5.13;;;;;;;;;;4903063;29;20044;-86
2022/12/07 09:31:50;;;;;;;9.07;4.75;;;;;;;;;;4903699;29;20047;-86
2022/12/07 09:34:16;;;;;;;7.20;4.30;;;;;;;;;;4902827;29;20494;-85
2022/12/07 09:36:42;;;;;;;5.93;4.50;;;;;;;;;;4903162;29;20096;-86
2022/12/07 09:39:08;;;;;;;9.25;4.88;;;;;;;;;;4904055;29;20042;-87
2022/12/07 09:41:38;;;;;;;5.88;4.00;;;;;;;;;;4904505;29;20104;-87
2022/12/07 09:44:23;;;;;;;4.30;3.13;;;;;;;;;;4902967;29;20029;-87
2022/12/07 09:46:50;;;;;;;4.18;2.60;;;;;;;;;;4903786;29;20044;-86
2022/12/07 09:49:24;;;;;;;5.40;3.30;;;;;;;;;;4902445;29;20036;-86
2022/12/07 09:52:02;;;;;;;4.22;2.97;;;;;;;;;;4903564;29;20035;-86
2022/12/07 09:54:29;;;;;;;4.50;2.53;;;;;;;;;;4903498;29;20044;-86
2022/12/07 09:56:55;;;;;;;7.72;4.07;;;;;;;;;;4903890;29;20029;-86
2022/12/07 09:59:21;;;;;;;8.35;4.32;;;;;;;;;;4903916;29;20051;-86
2022/12/07 10:01:49;;;;;;;7.40;4.75;;;;;;;;;;4903323;29;20516;-85
2022/12/07 10:04:20;;;;;;;5.82;2.97;;;;;;;;;;4904032;29;20032;-85
2022/12/07 10:06:47;;;;;;;3.35;2.20;;;;;;;;;;4901795;29;20055;-86
2022/12/07 10:09:15;;;;;;;2.72;1.80;;;;;;;;;;4886940;29;20136;-87
2022/12/07 10:12:09;;;;;;;3.25;2.00;;;;;;;;;;4904213;29;20024;-87
2022/12/07 10:14:52;;;;;;;6.50;3.95;;;;;;;;;;4901977;29;20052;-87
2022/12/07 10:17:40;;;;;;;8.52;4.75;;;;;;;;;;4902416;29;20088;-87
2022/12/07 10:20:12;;;;;;;6.70;4.05;;;;;;;;;;4903841;29;20036;-87
2022/12/07 10:22:38;;;;;;;7.85;3.90;;;;;;;;;;4902290;29;20040;-87
2022/12/07 10:25:19;;;;;;;6.28;4.00;;;;;;;;;;4901766;29;20029;-87
2022/12/07 10:27:57;;;;;;;7.55;4.47;;;;;;;;;;4901972;29;20037;-87
2022/12/07 10:30:22;;;;;;;8.73;5.28;;;;;;;;;;4902491;29;20375;-87
2022/12/07 10:32:48;;;;;;;7.95;4.60;;;;;;;;;;4886380;29;20521;-86
2022/12/07 10:35:23;;;;;;;10.13;5.45;;;;;;;;;;4902650;29;20037;-87
2022/12/07 10:37:50;;;;;;;6.47;4.45;;;;;;;;;;4902928;29;20048;-86
2022/12/07 10:40:26;;;;;;;5.90;3.97;;;;;;;;;;4903111;29;20032;-87
2022/12/07 10:43:21;;;;;;;5.57;3.60;;;;;;;;;;4901113;29;20505;-86
2022/12/07 10:46:21;;;;;;;6.40;3.83;;;;;;;;;;4898178;29;20116;-87
2022/12/07 10:49:14;;;;;;;6.80;3.80;;;;;;;;;;4902860;29;20184;-86
2022/12/07 10:51:50;;;;;;;6.78;3.78;;;;;;;;;;4902211;29;20040;-87
2022/12/07 10:54:58;;;;;;;6.85;3.92;;;;;;;;;;4900925;29;20040;-86
2022/12/07 10:57:51;;;;;;;7.68;4.50;;;;;;;;;;4902293;29;20088;-86
2022/12/07 11:00:24;;;;;;;10.20;5.05;;;;;;;;;;4902450;29;20044;-88
2022/12/07 11:03:20;;;;;;;6.90;4.47;;;;;;;;;;4902386;29;20040;-86
2022/12/07 11:05:48;;;;;;;8.30;4.70;;;;;;;;;;4902547;29;20100;-86
2022/12/07 11:08:32;;;;;;;8.82;4.35;;;;;;;;;;4902305;29;20100;-86
2022/12/07 11:11:13;;;;;;;;;;;;;;;;;;4886631;29;20047;-84
2022/12/07 11:13:41;;;;;;;5.10;3.28;;;;;;;;;;4902454;29;20010;-87
2022/12/07 11:16:27;;;;;;;5.40;3.25;;;;;;;;;;4900835;29;20024;-87
2022/12/07 11:19:20;;;;;;;5.68;3.25;;;;;;;;;;4902156;29;20043;-86
2022/12/07 11:21:57;;;;;;;5.80;3.45;;;;;;;;;;4901985;29;20040;-86
2022/12/07 11:24:29;;;;;;;7.45;3.50;;;;;;;;;;4900367;29;20409;-86
2022/12/07 11:27:03;;;;;;;7.68;3.72;;;;;;;;;;4900926;29;20032;-85
2022/12/07 11:29:56;;;;;;;6.50;3.97;;;;;;;;;;4902259;29;20092;-86
2022/12/07 11:33:04;;;;;;;7.70;4.20;;;;;;;;;;4900554;29;20108;-86
2022/12/07 11:35:38;;;;;;;6.50;3.80;;;;;;;;;;4893496;29;20081;-87
2022/12/07 11:38:23;;;;;;;;;;;;;;;;;;4901469;29;20045;-84
2022/12/07 11:40:53;;;;;;;9.13;3.95;;;;;;;;;;4900863;29;19915;-86
2022/12/07 11:43:35;;;;;;;7.28;4.07;;;;;;;;;;4900398;29;20032;-85
2022/12/07 11:46:21;;;;;;;8.57;4.22;;;;;;;;;;4900207;29;20037;-86
2022/12/07 11:49:07;;;;;;;8.82;4.53;;;;;;;;;;4901780;29;20029;-86
2022/12/07 11:51:35;;;;;;;10.23;4.70;;;;;;;;;;4901448;29;20056;-86
2022/12/07 11:54:35;;;;;;;10.38;4.75;;;;;;;;;;4899975;29;20040;-86
2022/12/07 11:57:12;;;;;;;6.45;3.40;;;;;;;;;;4890044;29;20080;-86
2022/12/07 11:59:45;;;;;;;5.82;3.15;;;;;;;;;;4901517;29;20041;-86
2022/12/07 12:02:13;;;;;;;;;;;;;;;;;;4900413;29;20040;-84
2022/12/07 12:04:41;;;;;;;9.20;3.97;;;;;;;;;;4901144;29;19921;-86
2022/12/07 12:07:07;;;;;;;10.90;4.50;;;;;;;;;;4900893;29;20481;-87
2022/12/07 12:09:50;;;;;;;10.38;4.80;;;;;;;;;;4899599;29;20080;-86
2022/12/07 12:12:19;;;;;;;9.52;4.65;;;;;;;;;;4900840;29;20052;-86
2022/12/07 12:15:02;;;;;;;9.57;5.20;;;;;;;;;;4900760;29;20043;-86
2022/12/07 12:17:58;;;;;;;11.13;5.15;;;;;;;;;;4901208;29;20047;-86
2022/12/07 12:20:56;;;;;;;7.13;3.92;;;;;;;;;;4900170;29;20040;-85
2022/12/07 12:23:33;;;;;;;5.70;3.58;;;;;;;;;;4889230;29;20139;-86
2022/12/07 12:26:04;;;;;;;4.93;3.25;;;;;;;;;;4900751;29;20040;-86
2022/12/07 12:28:51;;;;;;;7.38;4.00;;;;;;;;;;4899487;29;20099;-86
2022/12/07 12:31:20;;;;;;;11.77;4.90;;;;;;;;;;4883862;29;20036;-86
2022/12/07 12:33:51;;;;;;;8.00;4.35;;;;;;;;;;4899537;29;20104;-87
2022/12/07 12:36:21;;;;;;;7.95;4.72;;;;;;;;;;4897832;29;20040;-85
2022/12/07 12:39:07;;;;;;;10.35;5.10;;;;;;;;;;4900642;29;20048;-85
2022/12/07 12:41:39;;;;;;;11.98;5.00;;;;;;;;;;4900611;29;20057;-87
2022/12/07 12:44:19;;;;;;;8.02;4.22;;;;;;;;;;4900564;29;20040;-86
2022/12/07 12:46:58;;;;;;;9.80;4.72;;;;;;;;;;4901412;29;20045;-86
2022/12/07 12:49:24;;;;;;;7.03;4.32;;;;;;;;;;4901135;29;20089;-85
2022/12/07 12:51:51;;;;;;;6.10;3.75;;;;;;;;;;4900669;29;20059;-86
2022/12/07 12:54:25;;;;;;;4.88;2.92;;;;;;;;;;4883735;29;20238;-87
2022/12/07 12:57:13;;;;;;;5.25;3.20;;;;;;;;;;4901788;29;20052;-88
2022/12/07 12:59:42;;;;;;;5.18;3.30;;;;;;;;;;4899961;29;20064;-86
2022/12/07 13:02:31;;;;;;;5.10;3.63;;;;;;;;;;4900715;29;20045;-87
2022/12/07 13:05:12;;;;;;;7.38;3.85;;;;;;;;;;4903065;29;20044;-86
2022/12/07 13:07:46;;;;;;;8.18;4.55;;;;;;;;;;4901037;29;20052;-86
2022/12/07 13:10:40;;;;;;;7.10;4.28;;;;;;;;;;4901824;29;20037;-87
2022/12/07 13:13:08;;;;;;;8.35;4.18;;;;;;;;;;4899483;29;20049;-87
2022/12/07 13:15:40;;;;;;;9.48;5.03;;;;;;;;;;4883458;29;20044;-86
2022/12/07 13:18:28;;;;;;;8.27;4.80;;;;;;;;;;4901668;29;20079;-87
2022/12/07 13:21:08;;;;;;;6.32;4.05;;;;;;;;;;4901050;29;20037;-87
2022/12/07 13:23:38;;;;;;;8.00;4.13;;;;;;;;;;4899697;29;20451;-86
2022/12/07 13:26:23;;;;;;;6.88;4.10;;;;;;;;;;4899940;29;20044;-87
2022/12/07 13:29:11;;;;;;;7.45;4.78;;;;;;;;;;4900643;29;20087;-87
2022/12/07 13:31:44;;;;;;;9.23;4.30;;;;;;;;;;4900819;29;20075;-87
2022/12/07 13:34:31;;;;;;;7.68;4.70;;;;;;;;;;4900676;29;20512;-87
2022/12/07 13:36:58;;;;;;;8.80;5.25;;;;;;;;;;4901596;29;20051;-86
2022/12/07 13:39:26;;;;;;;8.88;4.93;;;;;;;;;;4901549;29;20044;-87
2022/12/07 13:41:54;;;;;;;6.63;4.00;;;;;;;;;;4901880;29;20048;-86
2022/12/07 13:44:20;;;;;;;6.70;4.25;;;;;;;;;;4903946;29;20131;-86
2022/12/07 13:47:06;;;;;;;7.57;4.78;;;;;;;;;;4904808;29;20088;-86
2022/12/07 13:49:38;;;;;;;6.72;3.80;;;;;;;;;;4903348;29;20040;-87
2022/12/07 13:52:18;;;;;;;5.20;3.83;;;;;;;;;;4906056;29;20081;-86
2022/12/07 13:54:56;;;;;;;7.70;3.80;;;;;;;;;;4902745;29;20044;-86
2022/12/07 13:57:24;;;;;;;6.22;4.22;;;;;;;;;;4904183;29;20085;-86
2022/12/07 13:59:49;;;;;;;6.50;3.95;;;;;;;;;;4904848;29;20040;-86
2022/12/07 14:02:34;;;;;;;9.73;4.75;;;;;;;;;;4904168;29;20035;-87
2022/12/07 14:05:24;;;;;;;7.80;4.68;;;;;;;;;;4903133;29;20037;-87
2022/12/07 14:07:54;;;;;;;8.13;4.72;;;;;;;;;;4904083;29;20047;-87
2022/12/07 14:10:27;;;;;;;8.68;5.07;;;;;;;;;;4904076;29;20059;-87
2022/12/07 14:12:55;;;;;;;7.93;4.65;;;;;;;;;;4904941;29;20068;-86
2022/12/07 14:15:23;;;;;;;16.42;9.23;;;;;;;;;;4904252;29;20084;-87
2022/12/07 14:17:54;;;;;;;25.40;14.07;;;;;;;;;;4903174;29;20088;-87
2022/12/07 14:20:39;;;;;;;24.83;13.27;;;;;;;;;;4910514;29;20039;-89
2022/12/07 14:23:19;;;;;;;21.17;11.68;;;;;;;;;;4924305;29;20028;-88
2022/12/07 14:25:46;;;;;;;14.63;8.52;;;;;;;;;;4922952;29;20044;-87
2022/12/07 14:28:33;;;;;;;11.18;6.60;;;;;;;;;;4905980;29;20070;-88
2022/12/07 14:31:00;;;;;;;19.42;8.32;;;;;;;;;;4905965;29;20044;-86
2022/12/07 14:33:26;;;;;;;10.93;5.88;;;;;;;;;;4906208;29;20040;-87
2022/12/07 14:35:55;;;;;;;52.33;20.17;;;;;;;;;;4922703;29;20047;-86
2022/12/07 14:38:22;;;;;;;24.10;10.63;;;;;;;;;;4906062;29;20038;-87
2022/12/07 14:40:48;;;;;;;11.88;6.20;;;;;;;;;;4922730;29;20059;-88
2022/12/07 14:43:16;;;;;;;11.15;5.95;;;;;;;;;;4922591;29;20036;-88
2022/12/07 14:45:42;;;;;;;9.75;5.22;;;;;;;;;;4921550;29;20032;-88
2022/12/07 14:48:11;;;;;;;16.63;6.95;;;;;;;;;;4923465;29;20573;-87
2022/12/07 14:50:40;;;;;;;17.55;7.72;;;;;;;;;;4906378;29;20046;-87
2022/12/07 14:53:14;;;;;;;16.30;7.00;;;;;;;;;;4922622;29;20490;-87
2022/12/07 14:55:40;;;;;;;19.38;7.20;;;;;;;;;;4922320;29;20092;-88
2022/12/07 14:58:06;;;;;;;11.75;6.53;;;;;;;;;;4922588;29;20493;-88
2022/12/07 15:00:32;;;;;;;12.43;6.68;;;;;;;;;;4905388;29;20040;-88